Time;durP1;ratioP1;P1;durP2;ratioP2;P2;SDS_P1;SDS_P2;PMS_P1;PMS_P2;Temp;Humidity;BMP_temperature;BMP_pressure;BME280_temperature;BME280_humidity;BME280_pressure;Samples;Min_cycle;Max_cycle;Signal;HPM_P1;HPM_P2
2024/03/18 00:03:55;;;;;;;6.13;2.88;;;;;;;10.91;60.77;100526.38;10380265;28;20095;-62
2024/03/18 00:08:56;;;;;;;8.45;3.55;;;;;;;10.96;60.38;100509.69;10375859;28;20045;-61
2024/03/18 00:13:56;;;;;;;7.07;3.03;;;;;;;10.94;60.34;100506.34;10357397;28;20041;-62
2024/03/18 00:18:57;;;;;;;8.55;3.72;;;;;;;10.95;60.49;100497.28;10376218;28;20049;-62
2024/03/18 00:23:57;;;;;;;7.18;3.60;;;;;;;11.00;60.19;100498.44;10377061;28;20057;-62
2024/03/18 00:28:58;;;;;;;10.48;4.32;;;;;;;10.93;60.53;100491.22;10373542;28;20092;-62
2024/03/18 00:33:58;;;;;;;8.20;4.10;;;;;;;10.96;60.49;100488.19;10379213;28;20413;-63
2024/03/18 00:38:59;;;;;;;8.65;3.20;;;;;;;11.05;60.08;100482.59;10378580;28;20518;-61
2024/03/18 00:44:02;;;;;;;9.95;3.90;;;;;;;11.14;59.94;100479.84;10379612;28;20157;-58
2024/03/18 00:49:04;;;;;;;7.00;3.53;;;;;;;11.07;60.14;100469.78;10374947;28;20073;-58
2024/03/18 00:54:05;;;;;;;7.90;4.35;;;;;;;11.10;60.28;100469.44;10372756;28;20053;-58
2024/03/18 00:59:06;;;;;;;7.88;4.03;;;;;;;11.07;60.56;100464.41;10375371;28;20053;-59
2024/03/18 01:04:07;;;;;;;5.03;3.53;;;;;;;11.15;60.29;100451.94;10376142;28;20050;-58
2024/03/18 01:09:08;;;;;;;6.70;3.38;;;;;;;11.08;60.83;100457.19;10374115;28;20050;-58
2024/03/18 01:14:09;;;;;;;9.93;3.67;;;;;;;11.15;60.52;100454.63;10372432;28;20045;-58
2024/03/18 01:19:09;;;;;;;6.28;3.72;;;;;;;11.24;60.76;100454.41;10373394;28;20087;-58
2024/03/18 01:24:10;;;;;;;6.43;3.20;;;;;;;11.26;60.76;100449.69;10356872;28;20049;-58
2024/03/18 01:29:10;;;;;;;8.40;3.75;;;;;;;11.30;60.29;100440.22;10378264;28;20507;-59
2024/03/18 01:34:11;;;;;;;8.30;3.30;;;;;;;11.36;60.71;100437.84;10376141;28;20136;-58
2024/03/18 01:39:17;;;;;;;8.88;3.53;;;;;;;11.35;60.38;100437.00;10377639;28;20512;-58
2024/03/18 01:44:18;;;;;;;4.97;3.47;;;;;;;11.32;60.76;100434.69;10374406;28;20061;-58
2024/03/18 01:49:18;;;;;;;4.70;2.97;;;;;;;11.31;60.47;100425.78;10372295;28;20413;-58
2024/03/18 01:54:19;;;;;;;6.47;3.45;;;;;;;11.35;60.73;100420.84;10375864;28;20057;-60
2024/03/18 01:59:19;;;;;;;6.85;3.22;;;;;;;11.32;60.90;100416.66;10366882;28;20869;-60
2024/03/18 02:04:20;;;;;;;6.20;3.72;;;;;;;11.34;60.59;100412.97;10373700;28;20071;-60
2024/03/18 02:09:21;;;;;;;4.90;3.30;;;;;;;11.26;60.65;100417.38;10374504;28;20053;-60
2024/03/18 02:14:23;;;;;;;5.82;3.45;;;;;;;11.31;60.78;100406.94;10365017;28;20111;-60
2024/03/18 02:19:23;;;;;;;7.05;3.58;;;;;;;11.35;60.67;100404.69;10369307;28;20578;-60
2024/03/18 02:24:24;;;;;;;7.55;2.95;;;;;;;11.40;60.45;100398.81;10373097;28;20060;-60
2024/03/18 02:29:25;;;;;;;7.18;3.28;;;;;;;11.44;60.99;100389.34;10375590;28;20048;-60
2024/03/18 02:34:26;;;;;;;7.05;4.10;;;;;;;11.46;60.79;100373.84;10374508;28;20064;-60
2024/03/18 02:39:26;;;;;;;102.63;40.05;;;;;;;11.38;61.11;100369.38;10376780;28;20441;-61
2024/03/18 02:44:27;;;;;;;52.17;22.33;;;;;;;11.38;61.17;100363.97;10379267;28;20104;-60
2024/03/18 02:49:27;;;;;;;25.92;12.10;;;;;;;11.40;60.86;100353.88;10382911;28;20129;-60
2024/03/18 02:54:28;;;;;;;12.52;6.32;;;;;;;11.42;60.78;100351.84;10377150;28;20041;-60
2024/03/18 02:59:29;;;;;;;9.90;5.38;;;;;;;11.48;60.71;100347.59;10377241;28;20132;-61
2024/03/18 03:04:29;;;;;;;8.75;4.55;;;;;;;11.49;60.80;100344.72;10381379;28;20049;-60
2024/03/18 03:09:30;;;;;;;7.38;3.90;;;;;;;11.56;60.85;100334.03;10378569;28;20051;-60
2024/03/18 03:14:30;;;;;;;12.35;4.15;;;;;;;11.56;60.84;100334.03;10377202;28;20099;-60
2024/03/18 03:19:31;;;;;;;9.00;3.67;;;;;;;11.61;60.32;100331.66;10377595;28;20123;-60
2024/03/18 03:24:31;;;;;;;7.35;3.45;;;;;;;11.65;60.11;100330.25;10359803;28;20045;-60
2024/03/18 03:29:32;;;;;;;7.53;3.97;;;;;;;11.46;60.68;100331.59;10374270;28;20049;-60
2024/03/18 03:34:32;;;;;;;8.75;3.40;;;;;;;11.45;60.51;100329.09;10372864;28;20052;-60
2024/03/18 03:39:35;;;;;;;5.47;3.55;;;;;;;11.47;60.65;100330.59;10377735;28;20258;-60
2024/03/18 03:44:36;;;;;;;8.23;4.40;;;;;;;11.43;60.63;100320.38;10379913;28;20060;-60
2024/03/18 03:49:36;;;;;;;5.20;3.58;;;;;;;11.48;60.41;100318.81;10381237;28;20045;-60
2024/03/18 03:54:37;;;;;;;7.05;3.63;;;;;;;11.64;59.74;100316.97;10378420;28;20057;-60
2024/03/18 03:59:37;;;;;;;9.82;3.80;;;;;;;11.68;59.93;100308.34;10377518;28;20496;-60
2024/03/18 04:04:38;;;;;;;7.57;3.72;;;;;;;11.69;60.09;100306.50;10379438;28;20428;-60
2024/03/18 04:09:38;;;;;;;8.18;4.25;;;;;;;11.75;59.97;100300.38;10377413;28;20168;-60
2024/03/18 04:14:39;;;;;;;10.20;4.47;;;;;;;11.81;59.83;100298.78;10377030;28;20053;-60
2024/03/18 04:19:40;;;;;;;6.60;4.75;;;;;;;11.89;59.55;100296.88;10379037;28;20081;-60
2024/03/18 04:24:40;;;;;;;6.97;4.50;;;;;;;11.94;59.20;100298.16;10372271;28;20393;-60
2024/03/18 04:29:41;;;;;;;8.27;4.57;;;;;;;11.93;59.43;100288.41;10374076;28;20038;-60
2024/03/18 04:34:41;;;;;;;7.78;4.07;;;;;;;11.93;59.34;100281.19;10372816;28;20053;-60
2024/03/18 04:39:42;;;;;;;8.95;3.85;;;;;;;11.97;58.95;100284.34;10374851;28;20562;-60
2024/03/18 04:44:42;;;;;;;6.88;3.85;;;;;;;11.99;58.59;100287.69;10377989;28;20496;-60
2024/03/18 04:49:43;;;;;;;8.48;4.63;;;;;;;11.97;58.55;100282.47;10378945;28;20045;-60
2024/03/18 04:54:43;;;;;;;9.82;4.07;;;;;;;11.95;58.41;100295.28;10368093;28;21002;-60
2024/03/18 04:59:44;;;;;;;8.70;4.38;;;;;;;11.90;58.94;100290.44;10374227;28;20050;-60
2024/03/18 05:04:44;;;;;;;7.43;4.57;;;;;;;11.92;58.89;100284.88;10370973;28;20131;-60
2024/03/18 05:09:45;;;;;;;6.60;3.95;;;;;;;11.98;58.27;100278.75;10376976;28;20060;-61
2024/03/18 05:14:46;;;;;;;9.77;4.15;;;;;;;11.97;58.38;100284.34;10368397;28;20460;-60
2024/03/18 05:19:46;;;;;;;11.43;5.15;;;;;;;11.96;58.82;100282.66;10374217;28;20397;-60
2024/03/18 05:24:47;;;;;;;9.48;5.03;;;;;;;11.94;58.29;100274.75;10370360;28;20073;-59
2024/03/18 05:29:47;;;;;;;11.18;3.88;;;;;;;11.89;58.80;100278.03;10375839;28;20849;-60
2024/03/18 05:34:49;;;;;;;9.70;4.43;;;;;;;11.75;59.16;100273.44;10372870;28;20061;-64
2024/03/18 05:39:49;;;;;;;10.23;4.70;;;;;;;11.54;60.02;100276.84;10374874;28;20094;-64
2024/03/18 05:44:50;;;;;;;9.55;4.90;;;;;;;11.47;60.61;100278.59;10370924;28;20049;-63
2024/03/18 05:49:50;;;;;;;8.70;4.32;;;;;;;11.52;60.35;100270.81;10375270;28;20074;-65
2024/03/18 05:54:51;;;;;;;10.63;5.07;;;;;;;11.65;60.04;100275.56;10372816;28;20049;-64
2024/03/18 05:59:52;;;;;;;10.35;4.80;;;;;;;11.75;60.12;100272.59;10374773;28;20045;-65
2024/03/18 06:04:52;;;;;;;8.25;4.35;;;;;;;11.70;60.13;100276.69;10368247;28;20405;-63
2024/03/18 06:09:53;;;;;;;9.38;4.30;;;;;;;11.61;60.58;100282.34;10371729;28;20053;-63
2024/03/18 06:14:53;;;;;;;6.93;4.18;;;;;;;11.50;60.14;100292.53;10376934;28;20062;-63
2024/03/18 06:19:58;;;;;;;9.02;4.53;;;;;;;11.49;60.80;100296.25;10379406;28;20050;-64
2024/03/18 06:30:18;;;;;;;12.48;5.22;;;;;;;11.65;60.15;100300.66;10375313;28;20521;-65
2024/03/18 06:35:18;;;;;;;7.15;4.45;;;;;;;11.78;59.85;100291.91;10378493;28;20073;-65
2024/03/18 06:40:19;;;;;;;9.63;4.90;;;;;;;11.79;60.02;100298.97;10382492;28;20076;-63
2024/03/18 06:45:20;;;;;;;9.80;4.47;;;;;;;11.83;60.15;100297.59;10381668;28;20452;-64
2024/03/18 06:50:21;;;;;;;10.27;5.60;;;;;;;11.60;60.72;100300.34;10374481;28;20049;-65
2024/03/18 06:55:22;;;;;;;10.70;5.60;;;;;;;11.08;62.14;100299.31;10375258;28;20587;-67
2024/03/18 07:00:25;;;;;;;17.63;6.10;;;;;;;10.74;63.31;100305.09;10374703;28;20053;-66
2024/03/18 07:05:26;;;;;;;10.63;6.18;;;;;;;10.55;63.84;100311.78;10373085;28;20044;-65
2024/03/18 07:10:27;;;;;;;13.85;6.53;;;;;;;10.25;65.15;100310.75;10377156;28;20079;-66
2024/03/18 07:15:27;;;;;;;13.88;7.63;;;;;;;10.37;65.18;100308.50;10374850;28;20049;-67
2024/03/18 07:20:28;;;;;;;13.07;5.72;;;;;;;10.51;65.47;100311.28;10374656;28;20049;-66
2024/03/18 07:25:28;;;;;;;11.20;6.50;;;;;;;10.82;64.92;100312.28;10380920;28;20480;-66
2024/03/18 07:30:29;;;;;;;13.48;6.38;;;;;;;10.91;65.16;100313.91;10376726;28;20053;-64
2024/03/18 07:35:29;;;;;;;10.35;5.82;;;;;;;11.20;64.92;100298.91;10374494;28;20085;-64
2024/03/18 07:40:30;;;;;;;12.77;6.18;;;;;;;11.45;64.86;100307.56;10379225;28;20130;-64
2024/03/18 07:45:31;;;;;;;13.48;6.10;;;;;;;11.52;64.96;100301.25;10375701;28;20072;-65
2024/03/18 07:50:35;;;;;;;14.00;7.00;;;;;;;11.49;65.02;100308.88;10377532;28;20113;-64
2024/03/18 07:55:35;;;;;;;14.07;6.60;;;;;;;11.36;65.18;100305.97;10376440;28;20068;-64
2024/03/18 08:00:36;;;;;;;15.38;7.00;;;;;;;11.68;65.24;100308.34;10375062;28;20057;-64
2024/03/18 08:05:37;;;;;;;13.60;6.43;;;;;;;11.78;65.02;100316.16;10372510;28;20428;-64
2024/03/18 08:10:37;;;;;;;11.80;5.63;;;;;;;11.93;64.52;100307.25;10371022;28;20451;-64
2024/03/18 08:15:38;;;;;;;12.93;6.72;;;;;;;12.10;64.54;100309.59;10370880;28;20099;-64
2024/03/18 08:20:39;;;;;;;13.90;6.28;;;;;;;12.11;64.27;100307.72;10354403;28;20056;-64
2024/03/18 08:25:39;;;;;;;13.07;5.80;;;;;;;12.34;64.36;100309.47;10359176;28;20045;-64
2024/03/18 08:30:40;;;;;;;11.60;6.15;;;;;;;12.25;64.29;100316.84;10377436;28;20045;-64
2024/03/18 08:35:40;;;;;;;8.98;5.65;;;;;;;11.98;64.71;100313.75;10376218;28;20053;-64
2024/03/18 08:40:41;;;;;;;11.68;5.47;;;;;;;11.90;65.07;100322.78;10375771;28;20056;-64
2024/03/18 08:45:50;;;;;;;11.95;6.07;;;;;;;12.02;64.37;100304.28;10355070;28;20049;-64
2024/03/18 08:50:50;;;;;;;9.95;5.22;;;;;;;12.20;63.67;100319.25;10373891;28;20731;-65
2024/03/18 08:55:51;;;;;;;9.13;5.13;;;;;;;12.24;63.47;100309.75;10374117;28;20088;-64
2024/03/18 09:00:53;;;;;;;10.23;6.15;;;;;;;12.24;63.72;100310.59;10376838;28;20672;-65
2024/03/18 09:05:55;;;;;;;10.27;5.97;;;;;;;12.36;63.25;100310.97;10370805;28;20053;-64
2024/03/18 09:10:55;;;;;;;11.80;5.28;;;;;;;12.46;63.05;100313.34;10370409;28;20092;-63
2024/03/18 09:15:56;;;;;;;9.15;4.38;;;;;;;12.47;63.14;100313.16;10366252;28;20045;-64
2024/03/18 09:20:57;;;;;;;14.85;5.35;;;;;;;12.38;62.70;100310.75;10375185;28;20527;-64
2024/03/18 09:25:58;;;;;;;9.57;5.85;;;;;;;12.48;62.86;100316.72;10369135;28;20045;-64
2024/03/18 09:31:02;;;;;;;10.05;5.72;;;;;;;12.74;62.26;100307.22;10374730;28;20052;-64
2024/03/18 09:36:03;;;;;;;10.10;5.57;;;;;;;13.05;61.53;100317.69;10370909;28;20149;-64
2024/03/18 09:41:05;;;;;;;9.13;5.10;;;;;;;13.27;61.41;100313.97;10375400;28;20046;-64
2024/03/18 09:46:09;;;;;;;11.80;5.18;;;;;;;13.13;61.26;100320.28;10372385;28;20053;-64
2024/03/18 09:51:19;;;;;;;7.53;4.85;;;;;;;13.15;60.98;100312.84;10365339;28;20581;-64
2024/03/18 09:56:19;;;;;;;9.75;5.78;;;;;;;13.41;60.37;100317.66;10376283;28;20053;-64
2024/03/18 10:01:21;;;;;;;10.05;5.30;;;;;;;13.64;60.21;100325.50;10385442;28;20053;-64
2024/03/18 10:06:22;;;;;;;14.65;6.18;;;;;;;13.91;59.87;100320.28;10380138;28;20057;-64
2024/03/18 10:11:23;;;;;;;10.80;5.22;;;;;;;14.14;59.86;100324.56;10378391;28;20058;-64
2024/03/18 10:16:24;;;;;;;11.32;5.88;;;;;;;14.31;59.62;100319.66;10377747;28;20052;-64
2024/03/18 10:21:25;;;;;;;8.10;5.43;;;;;;;14.43;59.42;100316.16;10381619;28;20460;-64
2024/03/18 10:26:26;;;;;;;12.00;5.40;;;;;;;14.65;58.87;100305.25;10375605;28;20099;-64
2024/03/18 10:31:28;;;;;;;11.93;5.72;;;;;;;14.75;58.82;100308.41;10378240;28;20053;-64
2024/03/18 10:36:33;;;;;;;11.38;5.93;;;;;;;14.64;59.69;100306.28;10377402;28;20057;-65
2024/03/18 10:41:40;;;;;;;11.80;6.75;;;;;;;14.58;60.01;100326.88;10376356;28;20733;-65
2024/03/18 10:46:42;;;;;;;10.88;5.53;;;;;;;14.54;59.93;100328.28;10373099;28;20057;-65
2024/03/18 10:51:48;;;;;;;13.80;6.53;;;;;;;14.20;61.15;100319.22;10381497;28;20504;-65
2024/03/18 10:56:49;;;;;;;13.20;6.68;;;;;;;14.18;61.50;100315.88;10377628;28;20084;-64
2024/03/18 11:01:49;;;;;;;13.02;6.47;;;;;;;14.34;61.53;100319.28;10379592;28;20056;-63
2024/03/18 11:06:55;;;;;;;12.68;6.68;;;;;;;14.42;61.80;100325.31;10380163;28;20057;-63
2024/03/18 11:11:55;;;;;;;10.95;6.57;;;;;;;14.33;62.48;100342.75;10377018;28;20041;-64
2024/03/18 11:16:56;;;;;;;12.40;5.70;;;;;;;14.29;62.23;100350.44;10425319;28;20049;-64
2024/03/18 11:22:01;;;;;;;16.52;6.90;;;;;;;14.45;62.35;100343.88;10418471;28;20076;-62
2024/03/18 11:27:03;;;;;;;13.20;6.38;;;;;;;14.82;61.69;100346.31;10415006;28;20045;-63
2024/03/18 11:32:04;;;;;;;11.43;6.70;;;;;;;15.25;61.17;100325.13;10420225;28;20045;-64
2024/03/18 11:37:04;;;;;;;9.35;6.28;;;;;;;15.82;59.76;100327.44;10418979;28;20106;-63
2024/03/18 11:42:05;;;;;;;11.55;7.43;;;;;;;16.10;58.98;100331.78;10401000;28;20049;-64
2024/03/18 11:47:08;;;;;;;10.38;6.47;;;;;;;16.21;59.44;100328.38;10412875;28;20049;-63
2024/03/18 11:52:12;;;;;;;13.15;6.43;;;;;;;16.29;59.07;100332.72;10420797;28;20057;-61
2024/03/18 11:57:14;;;;;;;11.27;6.38;;;;;;;16.71;58.03;100344.88;10415343;28;20041;-64
2024/03/18 12:02:15;;;;;;;13.30;6.70;;;;;;;17.02;57.28;100335.13;10398315;28;20107;-63
2024/03/18 12:07:16;;;;;;;17.70;7.28;;;;;;;17.01;56.80;100337.00;10387550;28;20053;-65
2024/03/18 12:12:17;;;;;;;11.80;6.88;;;;;;;16.87;56.69;100334.59;10389830;28;20409;-65
2024/03/18 12:17:17;;;;;;;18.13;7.28;;;;;;;17.50;55.88;100322.88;10363438;28;20132;-63
2024/03/18 12:22:23;;;;;;;11.73;7.85;;;;;;;18.34;54.10;100318.66;10379565;28;20091;-68
2024/03/18 12:32:46;;;;;;;11.68;5.93;;;;;;;21.54;48.71;100301.84;10374079;28;20450;-65
2024/03/18 12:37:48;;;;;;;12.10;5.97;;;;;;;24.66;42.41;100285.78;10379241;28;20049;-66
2024/03/18 12:42:50;;;;;;;13.05;6.70;;;;;;;23.93;44.99;100294.81;10373107;28;20046;-67
2024/03/18 12:47:53;;;;;;;12.52;6.30;;;;;;;22.09;47.54;100315.75;10374794;28;20049;-64
2024/03/18 12:52:54;;;;;;;11.35;6.20;;;;;;;21.02;48.47;100312.97;10374419;28;20041;-64
2024/03/18 12:57:55;;;;;;;10.93;6.93;;;;;;;20.26;49.55;100312.28;10372425;28;20592;-63
2024/03/18 13:02:55;;;;;;;10.57;6.70;;;;;;;20.25;49.26;100316.91;10371081;28;20045;-63
2024/03/18 13:07:56;;;;;;;12.10;6.65;;;;;;;20.10;49.57;100316.59;10375261;28;20041;-64
2024/03/18 13:12:58;;;;;;;12.63;7.30;;;;;;;20.03;49.01;100314.00;10367596;28;20050;-63
2024/03/18 13:17:59;;;;;;;17.63;7.82;;;;;;;20.97;47.43;100301.94;10370169;28;20052;-65
2024/03/18 13:22:59;;;;;;;11.90;7.10;;;;;;;20.71;48.46;100309.66;10373888;28;20044;-65
2024/03/18 13:28:00;;;;;;;12.50;6.82;;;;;;;22.69;44.84;100294.84;10371064;28;20508;-65
2024/03/18 13:33:00;;;;;;;10.73;7.15;;;;;;;24.17;41.63;100305.38;10384217;28;20037;-64
2024/03/18 13:38:02;;;;;;;10.88;6.20;;;;;;;25.32;40.52;100299.66;10423167;28;20097;-64
2024/03/18 13:43:02;;;;;;;8.93;6.55;;;;;;;26.61;38.50;100296.56;10423603;28;20039;-63
2024/03/18 13:48:03;;;;;;;7.45;5.78;;;;;;;26.74;38.39;100306.13;10419937;28;20049;-64
2024/03/18 13:53:04;;;;;;;11.57;6.22;;;;;;;25.39;40.54;100304.84;10422797;28;20034;-62
2024/03/18 13:58:07;;;;;;;10.68;6.72;;;;;;;24.20;42.05;100304.84;10425715;28;20053;-64
2024/03/18 14:03:08;;;;;;;9.57;5.68;;;;;;;23.70;42.53;100312.50;10417839;28;20049;-62
2024/03/18 14:08:08;;;;;;;12.10;6.32;;;;;;;23.37;42.21;100308.97;10418391;28;20557;-63
2024/03/18 14:13:09;;;;;;;8.93;5.35;;;;;;;24.04;41.36;100301.19;10417757;28;20114;-65
2024/03/18 14:18:09;;;;;;;8.57;5.90;;;;;;;23.80;41.49;100300.81;10422050;28;20030;-65
2024/03/18 14:23:10;;;;;;;8.93;6.03;;;;;;;24.18;41.12;100301.53;10420366;28;20061;-62
2024/03/18 14:28:10;;;;;;;7.03;5.13;;;;;;;25.24;39.36;100293.88;10424998;28;20050;-63
2024/03/18 14:33:11;;;;;;;9.27;6.90;;;;;;;24.18;41.07;100296.88;10421298;28;20041;-62
2024/03/18 14:38:11;;;;;;;9.18;5.35;;;;;;;24.05;41.05;100294.59;10432423;28;20044;-63
2024/03/18 14:43:12;;;;;;;11.35;6.25;;;;;;;24.47;40.52;100285.44;10432320;28;20045;-63
2024/03/18 14:48:13;;;;;;;10.23;4.88;;;;;;;26.86;36.70;100290.91;10436045;28;20034;-63
2024/03/18 14:53:14;;;;;;;6.07;4.90;;;;;;;26.37;37.34;100297.22;10432645;28;20041;-64
2024/03/18 14:58:14;;;;;;;10.35;6.53;;;;;;;25.29;39.33;100300.19;10366834;23;20046;-85
2024/03/18 15:03:15;;;;;;;9.75;5.40;;;;;;;25.59;38.42;100297.69;10315967;28;20042;-86
2024/03/18 15:08:16;;;;;;;10.45;5.95;;;;;;;24.84;39.48;100298.19;10337251;28;20047;-86
2024/03/18 15:13:18;;;;;;;10.70;6.22;;;;;;;23.38;40.95;100294.16;10317437;28;20050;-87
2024/03/18 15:18:19;;;;;;;12.15;5.65;;;;;;;22.40;42.75;100288.78;10325641;28;20433;-82
2024/03/18 15:23:27;;;;;;;7.72;5.05;;;;;;;21.54;44.03;100296.38;10286970;28;20058;-82
2024/03/18 15:28:28;;;;;;;8.93;5.47;;;;;;;20.76;45.02;100295.28;10302145;28;20051;-83
2024/03/18 15:33:28;;;;;;;14.15;7.10;;;;;;;20.27;45.89;100289.38;10284497;28;20043;-81
2024/03/18 15:38:29;;;;;;;12.82;5.65;;;;;;;19.88;46.18;100295.38;10299503;28;20077;-81
2024/03/18 15:43:30;;;;;;;10.48;5.05;;;;;;;19.43;47.14;100282.31;10279010;28;20035;-81
2024/03/18 15:48:31;;;;;;;10.07;5.50;;;;;;;19.05;47.88;100293.63;10299212;28;20502;-80
2024/03/18 15:53:35;;;;;;;12.35;5.10;;;;;;;18.74;48.43;100299.09;10299576;28;20046;-82
2024/03/18 15:58:37;;;;;;;10.88;6.18;;;;;;;18.60;48.86;100289.44;10284189;28;20058;-80
2024/03/18 16:03:39;;;;;;;10.10;5.95;;;;;;;18.47;49.25;100286.91;10295533;28;20039;-81
2024/03/18 16:08:39;;;;;;;6.50;4.78;;;;;;;18.49;49.30;100288.31;10290094;28;20064;-83
2024/03/18 16:13:41;;;;;;;9.02;5.13;;;;;;;19.15;48.65;100278.38;10312055;28;20090;-84
2024/03/18 16:18:41;;;;;;;8.55;4.95;;;;;;;19.75;47.67;100293.75;10319433;28;20194;-84
2024/03/18 16:23:42;;;;;;;8.45;4.88;;;;;;;19.96;47.39;100300.50;10349464;28;20105;-84
2024/03/18 16:28:42;;;;;;;8.63;5.00;;;;;;;19.58;48.40;100307.22;10338775;28;20069;-86
2024/03/18 16:33:43;;;;;;;8.73;5.13;;;;;;;19.21;48.99;100317.47;10316849;28;20051;-84
2024/03/18 16:44:59;;;;;;;10.23;5.25;;;;;;;18.80;49.60;100306.38;10308127;28;20462;-81
2024/03/18 16:50:00;;;;;;;7.28;5.10;;;;;;;18.35;50.39;100308.63;10295993;28;20047;-84
2024/03/18 16:55:01;;;;;;;12.95;5.88;;;;;;;17.91;51.11;100313.28;10275234;28;20056;-84
2024/03/18 17:00:10;;;;;;;10.25;6.55;;;;;;;17.51;51.85;100317.19;10306089;28;20137;-84
2024/03/18 17:05:11;;;;;;;8.63;5.90;;;;;;;17.20;52.68;100324.34;10284604;28;20261;-85
2024/03/18 17:10:14;;;;;;;10.63;6.25;;;;;;;16.91;53.16;100322.25;10342408;23;20121;-65
2024/03/18 17:15:16;;;;;;;10.27;6.15;;;;;;;16.64;53.70;100339.47;10370893;28;20054;-67
2024/03/18 17:20:17;;;;;;;10.88;6.90;;;;;;;16.45;54.00;100345.84;10360868;28;20052;-66
2024/03/18 17:25:18;;;;;;;13.13;6.60;;;;;;;16.30;54.51;100348.81;10374343;28;20041;-66
2024/03/18 17:30:18;;;;;;;10.48;5.93;;;;;;;16.18;54.97;100356.75;10375568;28;20053;-64
2024/03/18 17:35:19;;;;;;;12.65;6.63;;;;;;;16.05;55.10;100357.66;10382279;28;20095;-65
2024/03/18 17:40:19;;;;;;;13.02;8.63;;;;;;;15.94;55.72;100363.72;10364970;28;20061;-67
2024/03/18 17:45:25;;;;;;;11.23;7.28;;;;;;;15.71;56.20;100366.00;10362395;28;20754;-68
2024/03/18 17:50:25;;;;;;;12.85;7.20;;;;;;;15.44;57.02;100380.38;10368200;28;20175;-62
2024/03/18 17:55:26;;;;;;;14.52;7.25;;;;;;;15.42;57.26;100389.72;10357971;28;20042;-62
2024/03/18 18:00:27;;;;;;;12.95;6.57;;;;;;;15.34;57.96;100398.88;10342825;28;20153;-63
2024/03/18 18:05:27;;;;;;;11.30;6.57;;;;;;;15.28;58.00;100399.72;10357476;28;20053;-64
2024/03/18 18:10:28;;;;;;;10.63;6.70;;;;;;;15.23;58.40;100408.47;10364757;28;20562;-63
2024/03/18 18:15:29;;;;;;;10.50;6.47;;;;;;;15.15;58.62;100422.19;10370254;28;20088;-61
2024/03/18 18:20:31;;;;;;;9.82;7.07;;;;;;;15.03;59.08;100418.41;10368842;28;20459;-62
2024/03/18 18:25:31;;;;;;;17.02;8.00;;;;;;;14.75;59.96;100423.91;10368722;28;20060;-62
2024/03/18 18:30:32;;;;;;;14.38;6.90;;;;;;;14.70;60.19;100426.41;10366150;28;20613;-62
2024/03/18 18:35:32;;;;;;;16.15;8.02;;;;;;;14.83;59.87;100431.84;10357954;28;20057;-64
2024/03/18 18:40:34;;;;;;;12.85;7.80;;;;;;;14.85;59.86;100440.63;10364082;28;20096;-64
2024/03/18 18:45:34;;;;;;;13.25;7.53;;;;;;;14.84;60.05;100441.66;10364231;28;20045;-63
2024/03/18 18:50:35;;;;;;;13.80;7.45;;;;;;;14.78;60.44;100443.28;10355918;28;20057;-61
2024/03/18 18:55:35;;;;;;;14.85;7.72;;;;;;;14.66;60.63;100443.03;10345311;28;20089;-63
2024/03/18 19:00:36;;;;;;;15.95;7.40;;;;;;;14.45;61.07;100441.25;10367490;28;20123;-62
2024/03/18 19:05:37;;;;;;;18.05;8.00;;;;;;;14.30;61.40;100445.94;10365412;28;20053;-64
2024/03/18 19:10:37;;;;;;;13.05;8.32;;;;;;;14.20;61.34;100450.84;10360352;28;20140;-61
2024/03/18 19:15:38;;;;;;;15.07;8.23;;;;;;;14.15;61.70;100456.00;10364744;28;20056;-62
2024/03/18 19:20:39;;;;;;;12.40;7.88;;;;;;;14.06;62.07;100453.47;10355288;28;20707;-62
2024/03/18 19:25:40;;;;;;;18.83;8.68;;;;;;;14.02;62.27;100460.28;10362314;28;20540;-61
2024/03/18 19:30:40;;;;;;;18.95;10.05;;;;;;;14.07;62.18;100463.22;10367232;28;20144;-60
2024/03/18 19:35:43;;;;;;;17.02;9.38;;;;;;;14.08;62.34;100464.91;10365303;28;20100;-59
2024/03/18 19:40:44;;;;;;;17.38;8.60;;;;;;;14.04;62.86;100468.19;10358424;28;20493;-59
2024/03/18 19:45:44;;;;;;;18.88;9.65;;;;;;;13.88;63.35;100475.56;10361612;28;20054;-58
2024/03/18 19:50:45;;;;;;;14.48;8.10;;;;;;;13.75;63.58;100474.59;10367288;28;20053;-58
2024/03/18 19:55:46;;;;;;;16.38;10.10;;;;;;;13.63;64.08;100477.81;10365860;28;20149;-58
2024/03/18 20:00:51;;;;;;;20.13;10.02;;;;;;;13.66;64.23;100472.03;10368151;28;20047;-60
2024/03/18 20:05:52;;;;;;;19.60;9.00;;;;;;;13.77;63.95;100473.38;10373261;28;20677;-60
2024/03/18 20:10:53;;;;;;;14.93;9.07;;;;;;;13.76;63.80;100477.09;10366606;28;20041;-59
2024/03/18 20:15:53;;;;;;;13.38;8.80;;;;;;;13.66;64.08;100480.13;10367220;28;20058;-58
2024/03/18 20:20:54;;;;;;;16.48;9.25;;;;;;;13.50;64.30;100483.06;10364535;28;20053;-59
2024/03/18 20:25:55;;;;;;;16.20;9.30;;;;;;;13.37;64.57;100489.19;10365267;28;20056;-59
2024/03/18 20:30:55;;;;;;;18.70;9.45;;;;;;;13.27;64.91;100488.63;10364537;28;20057;-59
2024/03/18 20:35:56;;;;;;;15.93;8.45;;;;;;;13.18;64.75;100479.78;10363783;28;20076;-60
2024/03/18 20:40:57;;;;;;;14.95;8.95;;;;;;;13.10;65.16;100488.00;10365291;28;20175;-60
2024/03/18 20:45:57;;;;;;;19.60;9.75;;;;;;;13.09;65.04;100483.63;10365040;28;20116;-61
2024/03/18 20:50:58;;;;;;;15.95;10.57;;;;;;;13.07;65.39;100482.97;10370453;28;20053;-60
2024/03/18 20:55:58;;;;;;;19.85;10.68;;;;;;;13.09;65.15;100492.56;10365050;28;20054;-60
2024/03/18 21:00:59;;;;;;;16.08;9.45;;;;;;;13.14;65.38;100491.16;10377702;28;20061;-61
2024/03/18 21:06:00;;;;;;;22.98;10.57;;;;;;;13.16;65.31;100487.25;10375656;28;20107;-60
2024/03/18 21:11:01;;;;;;;17.15;8.90;;;;;;;13.15;65.58;100479.31;10371800;28;20050;-60
2024/03/18 21:16:03;;;;;;;16.67;7.97;;;;;;;13.10;65.69;100482.59;10364432;28;20050;-60
2024/03/18 21:21:04;;;;;;;15.98;8.38;;;;;;;13.09;65.58;100481.78;10393311;28;20115;-66
2024/03/18 21:26:06;;;;;;;14.00;8.63;;;;;;;13.08;65.61;100484.66;10409575;28;20084;-67
2024/03/18 21:31:06;;;;;;;15.93;9.07;;;;;;;13.05;65.73;100485.03;10398371;28;20550;-60
2024/03/18 21:36:07;;;;;;;23.75;12.48;;;;;;;12.80;66.27;100481.81;10370257;28;20120;-59
2024/03/18 21:41:08;;;;;;;26.23;14.57;;;;;;;12.71;66.68;100481.06;10374317;28;20046;-60
2024/03/18 21:46:09;;;;;;;21.30;11.05;;;;;;;12.79;66.94;100486.34;10382980;28;20049;-59
2024/03/18 21:51:10;;;;;;;15.75;9.55;;;;;;;12.84;66.54;100483.13;10360747;28;20057;-60
2024/03/18 21:56:12;;;;;;;19.67;9.98;;;;;;;12.86;66.30;100483.75;10379131;28;20451;-60
2024/03/18 22:01:12;;;;;;;16.08;9.30;;;;;;;12.80;66.27;100484.50;10381862;28;20072;-60
2024/03/18 22:06:12;;;;;;;19.48;11.45;;;;;;;12.62;66.80;100482.19;10388304;28;20493;-60
2024/03/18 22:11:13;;;;;;;20.20;10.70;;;;;;;12.39;67.20;100483.09;10360938;28;20099;-60
2024/03/18 22:16:14;;;;;;;17.67;9.95;;;;;;;12.24;67.21;100480.41;10415474;28;20046;-60
2024/03/18 22:21:14;;;;;;;15.38;8.55;;;;;;;12.10;67.33;100491.97;10422513;28;20037;-60
2024/03/18 22:26:16;;;;;;;16.15;9.50;;;;;;;11.95;67.24;100488.41;10422113;28;20049;-61
2024/03/18 22:31:18;;;;;;;20.70;10.02;;;;;;;11.83;67.72;100480.75;10419343;28;20034;-60
2024/03/18 22:36:19;;;;;;;19.10;9.13;;;;;;;11.75;67.81;100490.72;10421584;28;20053;-60
2024/03/18 22:41:20;;;;;;;17.65;8.88;;;;;;;11.68;67.55;100494.13;10422975;28;20042;-61
2024/03/18 22:46:20;;;;;;;18.15;9.20;;;;;;;11.65;67.82;100491.81;10418493;28;21284;-60
2024/03/18 22:51:21;;;;;;;18.75;9.35;;;;;;;11.58;68.28;100482.78;10420479;28;20073;-61
2024/03/18 22:56:21;;;;;;;19.80;10.30;;;;;;;11.49;68.40;100497.28;10370675;28;20059;-60
2024/03/18 23:01:22;;;;;;;16.10;8.77;;;;;;;11.62;68.41;100499.41;10367696;28;20061;-60
2024/03/18 23:06:23;;;;;;;17.65;8.40;;;;;;;11.63;68.09;100499.25;10370344;28;20073;-60
2024/03/18 23:11:23;;;;;;;18.20;8.52;;;;;;;11.52;68.38;100499.66;10368475;28;20057;-60